Terminal Aerodrome Forecast
Issued by NWS Portland, OR

Home | Current Version | Previous Version | Text Only | Print | Product List | Glossary On
Versions: 1 2 3 4 5 6 7 8 9 10 11 12 13 14 15 16 17
000
FTUS46 KPQR 230520
TAFTTD
TAF
KTTD 230520Z 2306/2406 VRB04KT P6SM BKN060
     FM231400 16007KT P6SM -RA SCT035 OVC050
     FM232000 21010KT P6SM -SHRA SCT035 OVC040
     FM240500 32006KT P6SM -RA SCT025 OVC035=

USA.gov is the U.S. government's official web portal to all federal, state and local government web resources and services.